PHOENIX SKY HARBOR INTL

KPHX (PHX)
Phoenix, Arizona
Towered

Vatsim Metar:
KPHX 201951Z VRB04KT 10SM FEW090 33/M04 A2990 RMK AO2 SLP104 T03281044 $

PHOENIX SKY HARBOR INTL ATC

PHX_A_APP - 128.650 - Chase Jones
Landvetter Tower PDC Initial climb clearance to 5000 ft unless otherwise instructed.

Traffic

Inbound:
Ident
Type
Name
ETA
Phase
SWA2040
B737
Quinn Leahy KSEA
20:39 Z
Descent
SWA6170
B738
Jonathan KORD
20:49 Z
Cruse
AAL586
B738
Cordero Ryan KMSP
21:50 Z
Cruse
HAL36
A21N
carlos KLAS
23:23 Z
Cruse

Outbound:
Ident
Type
Name
Destination
Phase
SWA444
B737
Pedro Trejos KMIA
KSAN
Boarding
AAL298
B739
Shane Kaylen PHNL
KLAX
Taxiing Out
DAL217
B738
Loren Broking KBNA
KBNA
Boarding
AAL1160
B738
Cameron Manning KXNA
KLAX
Climb
VRD201
A320
Doug Larkins KRDM
KORD
Climb
UAL293
B739
Brayden Foster KSAT
KLAX
Climb
DAL2279
A320
Willam Wistar KDAL
KDFW
Climb